sensor_id;sensor_type;location;lat;lon;timestamp;pressure;altitude;pressure_sealevel;temperature;humidity
54389;BME280;40975;50.390;8.640;2024-03-23T00:52:56;98218.28;;;6.09;100.00
54389;BME280;40975;50.390;8.640;2024-03-23T00:55:22;98213.56;;;6.12;100.00
54389;BME280;40975;50.390;8.640;2024-03-23T00:57:47;98206.91;;;6.08;100.00
54389;BME280;40975;50.390;8.640;2024-03-23T01:00:13;98209.41;;;6.10;100.00
54389;BME280;40975;50.390;8.640;2024-03-23T01:02:38;98198.84;;;6.10;100.00
54389;BME280;40975;50.390;8.640;2024-03-23T01:05:04;98202.34;;;6.10;100.00
54389;BME280;40975;50.390;8.640;2024-03-23T01:07:29;98210.25;;;6.10;100.00
54389;BME280;40975;50.390;8.640;2024-03-23T01:09:54;98220.78;;;6.00;100.00
54389;BME280;40975;50.390;8.640;2024-03-23T01:12:20;98213.56;;;5.93;100.00
54389;BME280;40975;50.390;8.640;2024-03-23T01:14:45;98210.91;;;5.83;100.00
54389;BME280;40975;50.390;8.640;2024-03-23T01:17:11;98209.94;;;5.84;100.00
54389;BME280;40975;50.390;8.640;2024-03-23T01:19:36;98206.19;;;5.86;100.00
54389;BME280;40975;50.390;8.640;2024-03-23T01:22:01;98193.16;;;5.85;100.00
54389;BME280;40975;50.390;8.640;2024-03-23T01:24:27;98185.13;;;5.86;100.00
54389;BME280;40975;50.390;8.640;2024-03-23T01:26:52;98170.56;;;5.92;100.00
54389;BME280;40975;50.390;8.640;2024-03-23T01:29:17;98177.34;;;5.95;100.00
54389;BME280;40975;50.390;8.640;2024-03-23T01:31:43;98164.75;;;5.98;100.00
54389;BME280;40975;50.390;8.640;2024-03-23T01:34:08;98163.50;;;6.02;100.00
54389;BME280;40975;50.390;8.640;2024-03-23T01:36:34;98162.56;;;6.03;100.00
54389;BME280;40975;50.390;8.640;2024-03-23T01:38:59;98152.44;;;6.09;100.00
54389;BME280;40975;50.390;8.640;2024-03-23T01:41:24;98154.22;;;6.08;100.00
54389;BME280;40975;50.390;8.640;2024-03-23T01:43:50;98140.78;;;6.01;100.00
54389;BME280;40975;50.390;8.640;2024-03-23T01:46:16;98147.84;;;5.91;100.00
54389;BME280;40975;50.390;8.640;2024-03-23T01:48:42;98152.69;;;5.96;100.00
54389;BME280;40975;50.390;8.640;2024-03-23T01:51:07;98153.38;;;5.98;100.00
54389;BME280;40975;50.390;8.640;2024-03-23T01:53:33;98148.41;;;6.04;100.00
54389;BME280;40975;50.390;8.640;2024-03-23T01:55:58;98143.09;;;6.14;100.00
54389;BME280;40975;50.390;8.640;2024-03-23T01:58:23;98138.09;;;6.21;100.00
54389;BME280;40975;50.390;8.640;2024-03-23T02:00:49;98119.22;;;6.26;100.00
54389;BME280;40975;50.390;8.640;2024-03-23T02:03:27;98117.81;;;6.31;100.00
54389;BME280;40975;50.390;8.640;2024-03-23T02:05:54;98117.97;;;6.30;100.00
54389;BME280;40975;50.390;8.640;2024-03-23T02:08:22;98117.00;;;6.31;100.00
54389;BME280;40975;50.390;8.640;2024-03-23T02:10:50;98112.28;;;6.34;100.00
54389;BME280;40975;50.390;8.640;2024-03-23T02:13:17;98119.59;;;6.41;100.00
54389;BME280;40975;50.390;8.640;2024-03-23T02:15:43;98114.84;;;6.44;100.00
54389;BME280;40975;50.390;8.640;2024-03-23T02:18:08;98111.94;;;6.47;100.00
54389;BME280;40975;50.390;8.640;2024-03-23T02:20:35;98096.41;;;6.44;100.00
54389;BME280;40975;50.390;8.640;2024-03-23T02:23:00;98096.13;;;6.47;100.00
54389;BME280;40975;50.390;8.640;2024-03-23T02:25:25;98094.19;;;6.49;100.00
54389;BME280;40975;50.390;8.640;2024-03-23T02:27:51;98095.69;;;6.52;100.00
54389;BME280;40975;50.390;8.640;2024-03-23T02:30:18;98091.09;;;6.54;100.00
54389;BME280;40975;50.390;8.640;2024-03-23T02:32:43;98087.50;;;6.55;100.00
54389;BME280;40975;50.390;8.640;2024-03-23T02:35:08;98082.75;;;6.59;100.00
54389;BME280;40975;50.390;8.640;2024-03-23T02:37:34;98070.97;;;6.63;100.00
54389;BME280;40975;50.390;8.640;2024-03-23T02:39:59;98061.75;;;6.67;100.00
54389;BME280;40975;50.390;8.640;2024-03-23T02:42:25;98055.50;;;6.68;100.00
54389;BME280;40975;50.390;8.640;2024-03-23T02:44:51;98056.63;;;6.65;100.00
54389;BME280;40975;50.390;8.640;2024-03-23T02:47:16;98057.47;;;6.66;100.00
54389;BME280;40975;50.390;8.640;2024-03-23T02:49:41;98048.56;;;6.67;100.00
54389;BME280;40975;50.390;8.640;2024-03-23T02:52:07;98033.16;;;6.72;100.00
54389;BME280;40975;50.390;8.640;2024-03-23T02:54:32;98037.28;;;6.75;100.00
54389;BME280;40975;50.390;8.640;2024-03-23T02:56:57;98035.63;;;6.74;100.00
54389;BME280;40975;50.390;8.640;2024-03-23T02:59:23;98046.69;;;6.77;100.00
54389;BME280;40975;50.390;8.640;2024-03-23T03:01:48;98041.28;;;6.79;100.00
54389;BME280;40975;50.390;8.640;2024-03-23T03:04:13;98041.16;;;6.80;100.00
54389;BME280;40975;50.390;8.640;2024-03-23T03:06:39;98029.75;;;6.80;100.00
54389;BME280;40975;50.390;8.640;2024-03-23T03:09:06;98025.69;;;6.85;100.00
54389;BME280;40975;50.390;8.640;2024-03-23T03:11:31;98015.13;;;6.85;100.00
54389;BME280;40975;50.390;8.640;2024-03-23T03:13:56;98015.00;;;6.87;100.00
54389;BME280;40975;50.390;8.640;2024-03-23T03:16:22;98002.63;;;6.88;100.00
54389;BME280;40975;50.390;8.640;2024-03-23T03:18:47;98004.59;;;6.85;100.00
54389;BME280;40975;50.390;8.640;2024-03-23T03:21:13;98005.28;;;6.88;100.00
54389;BME280;40975;50.390;8.640;2024-03-23T03:23:38;98008.59;;;6.90;100.00
54389;BME280;40975;50.390;8.640;2024-03-23T03:26:06;97991.91;;;6.89;100.00
54389;BME280;40975;50.390;8.640;2024-03-23T03:28:33;98000.53;;;6.91;100.00
54389;BME280;40975;50.390;8.640;2024-03-23T03:31:00;98004.00;;;6.92;100.00
54389;BME280;40975;50.390;8.640;2024-03-23T03:33:28;97998.56;;;6.93;100.00
54389;BME280;40975;50.390;8.640;2024-03-23T03:35:54;97986.19;;;6.94;100.00
54389;BME280;40975;50.390;8.640;2024-03-23T03:38:20;97992.31;;;6.94;100.00
54389;BME280;40975;50.390;8.640;2024-03-23T03:40:45;97990.13;;;6.90;100.00
54389;BME280;40975;50.390;8.640;2024-03-23T03:43:10;97990.94;;;6.90;100.00
54389;BME280;40975;50.390;8.640;2024-03-23T03:45:36;97980.78;;;6.95;100.00
54389;BME280;40975;50.390;8.640;2024-03-23T03:48:02;97985.09;;;6.96;100.00
54389;BME280;40975;50.390;8.640;2024-03-23T03:50:27;97987.72;;;6.96;100.00
54389;BME280;40975;50.390;8.640;2024-03-23T03:52:53;97991.03;;;6.98;100.00
54389;BME280;40975;50.390;8.640;2024-03-23T03:55:18;97993.34;;;7.02;100.00
54389;BME280;40975;50.390;8.640;2024-03-23T03:57:43;98008.44;;;7.09;100.00
54389;BME280;40975;50.390;8.640;2024-03-23T04:00:09;98011.16;;;7.18;100.00
54389;BME280;40975;50.390;8.640;2024-03-23T04:02:38;98011.50;;;7.41;100.00
54389;BME280;40975;50.390;8.640;2024-03-23T04:05:04;98019.63;;;7.47;100.00
54389;BME280;40975;50.390;8.640;2024-03-23T04:07:29;98015.66;;;7.43;100.00
54389;BME280;40975;50.390;8.640;2024-03-23T04:09:55;98025.81;;;7.38;100.00
54389;BME280;40975;50.390;8.640;2024-03-23T04:12:20;98030.13;;;7.39;100.00
54389;BME280;40975;50.390;8.640;2024-03-23T04:14:45;98032.31;;;7.26;100.00
54389;BME280;40975;50.390;8.640;2024-03-23T04:17:11;98041.84;;;7.19;100.00
54389;BME280;40975;50.390;8.640;2024-03-23T04:19:36;98042.34;;;7.04;100.00
54389;BME280;40975;50.390;8.640;2024-03-23T04:22:02;98040.09;;;6.91;100.00
54389;BME280;40975;50.390;8.640;2024-03-23T04:24:28;98040.69;;;6.85;100.00
54389;BME280;40975;50.390;8.640;2024-03-23T04:26:54;98051.69;;;6.80;100.00
54389;BME280;40975;50.390;8.640;2024-03-23T04:29:19;98047.50;;;6.60;100.00
54389;BME280;40975;50.390;8.640;2024-03-23T04:31:45;98044.09;;;6.49;100.00
54389;BME280;40975;50.390;8.640;2024-03-23T04:34:11;98047.22;;;6.35;100.00
54389;BME280;40975;50.390;8.640;2024-03-23T04:36:36;98045.94;;;6.39;100.00
54389;BME280;40975;50.390;8.640;2024-03-23T04:39:01;98060.00;;;6.30;100.00
54389;BME280;40975;50.390;8.640;2024-03-23T04:41:27;98047.41;;;6.24;100.00
54389;BME280;40975;50.390;8.640;2024-03-23T04:43:52;98057.56;;;6.18;100.00
54389;BME280;40975;50.390;8.640;2024-03-23T04:46:18;98055.09;;;6.07;100.00
54389;BME280;40975;50.390;8.640;2024-03-23T04:48:43;98066.63;;;5.96;100.00
54389;BME280;40975;50.390;8.640;2024-03-23T04:51:10;98061.91;;;5.90;100.00
54389;BME280;40975;50.390;8.640;2024-03-23T04:53:38;98072.84;;;5.95;100.00
54389;BME280;40975;50.390;8.640;2024-03-23T04:56:03;98073.00;;;5.94;100.00
54389;BME280;40975;50.390;8.640;2024-03-23T04:58:29;98084.34;;;5.84;100.00
54389;BME280;40975;50.390;8.640;2024-03-23T05:00:57;98089.09;;;5.90;100.00
54389;BME280;40975;50.390;8.640;2024-03-23T05:03:23;98094.34;;;5.90;100.00
54389;BME280;40975;50.390;8.640;2024-03-23T05:05:49;98107.63;;;5.89;100.00
54389;BME280;40975;50.390;8.640;2024-03-23T05:08:15;98108.34;;;5.91;100.00
54389;BME280;40975;50.390;8.640;2024-03-23T05:10:44;98105.56;;;5.93;100.00
54389;BME280;40975;50.390;8.640;2024-03-23T05:13:09;98114.31;;;5.83;100.00
54389;BME280;40975;50.390;8.640;2024-03-23T05:15:35;98118.59;;;5.94;100.00
54389;BME280;40975;50.390;8.640;2024-03-23T05:18:00;98128.59;;;5.81;100.00
54389;BME280;40975;50.390;8.640;2024-03-23T05:20:26;98130.13;;;5.83;100.00
54389;BME280;40975;50.390;8.640;2024-03-23T05:22:51;98133.03;;;5.80;100.00
54389;BME280;40975;50.390;8.640;2024-03-23T05:25:17;98144.25;;;5.72;100.00
54389;BME280;40975;50.390;8.640;2024-03-23T05:27:42;98138.16;;;5.72;100.00
54389;BME280;40975;50.390;8.640;2024-03-23T05:30:08;98137.47;;;5.50;100.00
54389;BME280;40975;50.390;8.640;2024-03-23T05:32:34;98147.03;;;5.51;100.00
54389;BME280;40975;50.390;8.640;2024-03-23T05:34:59;98151.59;;;5.39;100.00
54389;BME280;40975;50.390;8.640;2024-03-23T05:37:25;98150.06;;;5.37;100.00
54389;BME280;40975;50.390;8.640;2024-03-23T05:39:51;98142.59;;;5.42;100.00
54389;BME280;40975;50.390;8.640;2024-03-23T05:42:17;98169.16;;;5.19;100.00
54389;BME280;40975;50.390;8.640;2024-03-23T05:44:46;98167.09;;;5.23;100.00
54389;BME280;40975;50.390;8.640;2024-03-23T05:47:12;98170.81;;;5.20;100.00
54389;BME280;40975;50.390;8.640;2024-03-23T05:49:42;98189.78;;;5.14;100.00
54389;BME280;40975;50.390;8.640;2024-03-23T05:52:08;98200.56;;;5.21;100.00
54389;BME280;40975;50.390;8.640;2024-03-23T05:54:34;98199.91;;;5.19;100.00
54389;BME280;40975;50.390;8.640;2024-03-23T05:56:59;98192.53;;;5.03;100.00
54389;BME280;40975;50.390;8.640;2024-03-23T05:59:25;98193.84;;;4.87;100.00
54389;BME280;40975;50.390;8.640;2024-03-23T06:01:50;98192.72;;;4.80;100.00
54389;BME280;40975;50.390;8.640;2024-03-23T06:04:16;98189.34;;;4.68;100.00
54389;BME280;40975;50.390;8.640;2024-03-23T06:06:41;98228.38;;;4.73;100.00
54389;BME280;40975;50.390;8.640;2024-03-23T06:09:07;98238.13;;;4.82;100.00
54389;BME280;40975;50.390;8.640;2024-03-23T06:11:32;98236.69;;;4.78;100.00
54389;BME280;40975;50.390;8.640;2024-03-23T06:13:58;98250.16;;;4.85;100.00
54389;BME280;40975;50.390;8.640;2024-03-23T06:16:23;98245.16;;;4.81;100.00
54389;BME280;40975;50.390;8.640;2024-03-23T06:18:50;98242.44;;;4.93;100.00
54389;BME280;40975;50.390;8.640;2024-03-23T06:21:15;98229.28;;;4.83;100.00
54389;BME280;40975;50.390;8.640;2024-03-23T06:23:41;98233.50;;;4.74;100.00
54389;BME280;40975;50.390;8.640;2024-03-23T06:26:07;98231.13;;;4.71;100.00
54389;BME280;40975;50.390;8.640;2024-03-23T06:28:33;98228.31;;;4.63;100.00
54389;BME280;40975;50.390;8.640;2024-03-23T06:30:59;98228.41;;;4.51;100.00
54389;BME280;40975;50.390;8.640;2024-03-23T06:33:24;98231.41;;;4.47;100.00
54389;BME280;40975;50.390;8.640;2024-03-23T06:35:51;98233.81;;;4.50;100.00
54389;BME280;40975;50.390;8.640;2024-03-23T06:38:17;98230.03;;;4.43;100.00
54389;BME280;40975;50.390;8.640;2024-03-23T06:40:43;98257.25;;;4.42;100.00
54389;BME280;40975;50.390;8.640;2024-03-23T06:43:13;98272.19;;;4.41;100.00
54389;BME280;40975;50.390;8.640;2024-03-23T06:45:39;98283.09;;;4.58;100.00
54389;BME280;40975;50.390;8.640;2024-03-23T06:48:04;98281.75;;;4.63;100.00
54389;BME280;40975;50.390;8.640;2024-03-23T06:50:33;98300.19;;;4.73;100.00
54389;BME280;40975;50.390;8.640;2024-03-23T06:52:59;98294.53;;;4.78;100.00
54389;BME280;40975;50.390;8.640;2024-03-23T06:55:24;98313.06;;;4.76;100.00
54389;BME280;40975;50.390;8.640;2024-03-23T06:57:52;98317.69;;;4.84;100.00
54389;BME280;40975;50.390;8.640;2024-03-23T07:00:17;98316.09;;;4.72;100.00
54389;BME280;40975;50.390;8.640;2024-03-23T07:02:43;98322.63;;;4.77;100.00
54389;BME280;40975;50.390;8.640;2024-03-23T07:05:10;98330.19;;;4.92;100.00
54389;BME280;40975;50.390;8.640;2024-03-23T07:07:36;98340.19;;;4.98;100.00
54389;BME280;40975;50.390;8.640;2024-03-23T07:10:02;98332.47;;;4.85;100.00
54389;BME280;40975;50.390;8.640;2024-03-23T07:12:28;98338.44;;;4.87;100.00
54389;BME280;40975;50.390;8.640;2024-03-23T07:14:53;98329.91;;;4.95;100.00
54389;BME280;40975;50.390;8.640;2024-03-23T07:17:19;98328.88;;;5.07;100.00
54389;BME280;40975;50.390;8.640;2024-03-23T07:19:44;98346.44;;;5.28;100.00
54389;BME280;40975;50.390;8.640;2024-03-23T07:22:09;98345.16;;;5.22;100.00
54389;BME280;40975;50.390;8.640;2024-03-23T07:24:35;98347.66;;;5.24;100.00
54389;BME280;40975;50.390;8.640;2024-03-23T07:27:01;98348.22;;;5.27;100.00
54389;BME280;40975;50.390;8.640;2024-03-23T07:29:28;98355.78;;;5.52;100.00
54389;BME280;40975;50.390;8.640;2024-03-23T07:31:54;98350.41;;;5.63;100.00
54389;BME280;40975;50.390;8.640;2024-03-23T07:34:19;98350.88;;;5.68;100.00
54389;BME280;40975;50.390;8.640;2024-03-23T07:36:45;98360.19;;;5.82;100.00
54389;BME280;40975;50.390;8.640;2024-03-23T07:39:10;98362.94;;;5.81;100.00
54389;BME280;40975;50.390;8.640;2024-03-23T07:41:36;98372.50;;;5.72;100.00
54389;BME280;40975;50.390;8.640;2024-03-23T07:44:02;98379.88;;;5.88;100.00
54389;BME280;40975;50.390;8.640;2024-03-23T07:46:27;98380.00;;;5.76;100.00
54389;BME280;40975;50.390;8.640;2024-03-23T07:48:52;98376.19;;;5.59;100.00
54389;BME280;40975;50.390;8.640;2024-03-23T07:51:21;98391.00;;;5.60;100.00
54389;BME280;40975;50.390;8.640;2024-03-23T07:53:46;98396.19;;;5.72;100.00
54389;BME280;40975;50.390;8.640;2024-03-23T07:56:14;98406.19;;;5.78;100.00
54389;BME280;40975;50.390;8.640;2024-03-23T07:58:44;98395.69;;;5.88;100.00
54389;BME280;40975;50.390;8.640;2024-03-23T08:01:16;98413.97;;;5.89;100.00
54389;BME280;40975;50.390;8.640;2024-03-23T08:03:44;98413.75;;;6.02;100.00
54389;BME280;40975;50.390;8.640;2024-03-23T08:08:40;98405.34;;;6.09;100.00
54389;BME280;40975;50.390;8.640;2024-03-23T08:11:06;98419.66;;;6.55;100.00
54389;BME280;40975;50.390;8.640;2024-03-23T08:13:32;98425.06;;;7.12;100.00
54389;BME280;40975;50.390;8.640;2024-03-23T08:15:59;98420.88;;;7.95;95.67
54389;BME280;40975;50.390;8.640;2024-03-23T08:18:25;98417.47;;;8.31;89.98
54389;BME280;40975;50.390;8.640;2024-03-23T08:21:03;98424.00;;;7.81;89.55
54389;BME280;40975;50.390;8.640;2024-03-23T08:23:31;98434.38;;;7.07;93.09
54389;BME280;40975;50.390;8.640;2024-03-23T08:26:03;98454.91;;;6.64;98.30
54389;BME280;40975;50.390;8.640;2024-03-23T08:28:29;98460.59;;;6.79;100.00
54389;BME280;40975;50.390;8.640;2024-03-23T08:30:55;98460.63;;;6.89;100.00
54389;BME280;40975;50.390;8.640;2024-03-23T08:33:21;98463.41;;;7.07;98.93
54389;BME280;40975;50.390;8.640;2024-03-23T08:35:56;98449.59;;;7.32;97.26
54389;BME280;40975;50.390;8.640;2024-03-23T08:38:23;98455.56;;;7.25;98.23
54389;BME280;40975;50.390;8.640;2024-03-23T08:40:56;98436.13;;;8.93;90.61
54389;BME280;40975;50.390;8.640;2024-03-23T08:43:22;98439.75;;;8.28;86.40
54389;BME280;40975;50.390;8.640;2024-03-23T08:45:47;98451.72;;;9.05;86.33
54389;BME280;40975;50.390;8.640;2024-03-23T08:48:13;98446.53;;;8.77;83.50
54389;BME280;40975;50.390;8.640;2024-03-23T08:50:38;98455.09;;;7.97;85.85
54389;BME280;40975;50.390;8.640;2024-03-23T08:53:03;98463.59;;;7.53;87.72
54389;BME280;40975;50.390;8.640;2024-03-23T08:55:29;98476.84;;;7.33;91.53
54389;BME280;40975;50.390;8.640;2024-03-23T08:57:55;98478.53;;;8.09;91.05
54389;BME280;40975;50.390;8.640;2024-03-23T09:00:21;98475.25;;;7.98;89.15
54389;BME280;40975;50.390;8.640;2024-03-23T09:02:50;98473.06;;;7.93;86.75
54389;BME280;40975;50.390;8.640;2024-03-23T09:05:15;98479.81;;;8.33;85.18
54389;BME280;40975;50.390;8.640;2024-03-23T09:07:41;98480.34;;;8.37;85.43
54389;BME280;40975;50.390;8.640;2024-03-23T09:10:07;98479.66;;;8.07;89.01
54389;BME280;40975;50.390;8.640;2024-03-23T09:12:33;98484.97;;;8.25;87.05
54389;BME280;40975;50.390;8.640;2024-03-23T09:14:58;98477.63;;;8.47;84.39
54389;BME280;40975;50.390;8.640;2024-03-23T09:17:23;98475.94;;;9.28;81.99
54389;BME280;40975;50.390;8.640;2024-03-23T09:19:49;98511.53;;;9.33;82.07
54389;BME280;40975;50.390;8.640;2024-03-23T09:22:14;98523.25;;;10.87;78.96
54389;BME280;40975;50.390;8.640;2024-03-23T09:24:39;98517.41;;;11.91;68.92
54389;BME280;40975;50.390;8.640;2024-03-23T09:27:05;98517.81;;;10.38;72.24
54389;BME280;40975;50.390;8.640;2024-03-23T09:29:30;98524.75;;;9.52;75.60
54389;BME280;40975;50.390;8.640;2024-03-23T09:31:56;98517.47;;;8.91;75.59
54389;BME280;40975;50.390;8.640;2024-03-23T09:34:21;98513.75;;;9.91;73.61
54389;BME280;40975;50.390;8.640;2024-03-23T09:36:50;98519.81;;;9.12;73.78
54389;BME280;40975;50.390;8.640;2024-03-23T09:39:15;98516.31;;;8.76;78.70
54389;BME280;40975;50.390;8.640;2024-03-23T09:41:41;98524.13;;;12.98;65.39
54389;BME280;40975;50.390;8.640;2024-03-23T09:44:06;98526.16;;;14.26;58.12
54389;BME280;40975;50.390;8.640;2024-03-23T09:46:32;98516.00;;;11.31;62.60
54389;BME280;40975;50.390;8.640;2024-03-23T09:49:00;98509.72;;;10.13;66.16
54389;BME280;40975;50.390;8.640;2024-03-23T09:51:25;98504.03;;;9.73;71.05
54389;BME280;40975;50.390;8.640;2024-03-23T09:53:51;98497.25;;;9.26;70.40
54389;BME280;40975;50.390;8.640;2024-03-23T09:56:17;98509.44;;;9.01;72.98
54389;BME280;40975;50.390;8.640;2024-03-23T09:58:42;98502.84;;;8.69;77.37
54389;BME280;40975;50.390;8.640;2024-03-23T10:01:08;98496.06;;;8.38;79.14
54389;BME280;40975;50.390;8.640;2024-03-23T10:03:42;98506.34;;;8.42;80.05
54389;BME280;40975;50.390;8.640;2024-03-23T10:06:08;98507.00;;;8.16;80.42
54389;BME280;40975;50.390;8.640;2024-03-23T10:08:33;98501.09;;;8.32;83.38
54389;BME280;40975;50.390;8.640;2024-03-23T10:11:13;98502.53;;;11.41;73.15
54389;BME280;40975;50.390;8.640;2024-03-23T10:13:43;98504.84;;;11.11;74.23
54389;BME280;40975;50.390;8.640;2024-03-23T10:16:10;98504.84;;;10.00;75.38
54389;BME280;40975;50.390;8.640;2024-03-23T10:18:39;98516.69;;;9.17;81.21
54389;BME280;40975;50.390;8.640;2024-03-23T10:23:30;98594.38;;;7.47;84.79
54389;BME280;40975;50.390;8.640;2024-03-23T10:28:50;98563.47;;;5.55;88.88
54389;BME280;40975;50.390;8.640;2024-03-23T10:31:15;98558.31;;;5.32;93.54
54389;BME280;40975;50.390;8.640;2024-03-23T10:33:47;98557.06;;;5.15;97.86
54389;BME280;40975;50.390;8.640;2024-03-23T10:36:13;98540.16;;;4.96;98.09
54389;BME280;40975;50.390;8.640;2024-03-23T10:38:43;98513.59;;;5.11;98.06
54389;BME280;40975;50.390;8.640;2024-03-23T10:41:10;98508.00;;;5.47;99.37
54389;BME280;40975;50.390;8.640;2024-03-23T10:43:36;98517.22;;;5.62;100.00
54389;BME280;40975;50.390;8.640;2024-03-23T10:46:02;98501.59;;;5.91;99.91
54389;BME280;40975;50.390;8.640;2024-03-23T10:48:28;98507.53;;;6.15;99.14
54389;BME280;40975;50.390;8.640;2024-03-23T10:50:53;98498.28;;;6.30;98.19
54389;BME280;40975;50.390;8.640;2024-03-23T10:53:21;98491.97;;;6.52;96.79
54389;BME280;40975;50.390;8.640;2024-03-23T10:55:50;98502.81;;;6.89;93.83
54389;BME280;40975;50.390;8.640;2024-03-23T10:58:19;98497.44;;;7.67;93.32
54389;BME280;40975;50.390;8.640;2024-03-23T11:00:47;98496.28;;;9.80;83.77
54389;BME280;40975;50.390;8.640;2024-03-23T11:03:37;98488.19;;;9.55;79.09
54389;BME280;40975;50.390;8.640;2024-03-23T11:06:06;98481.22;;;9.28;76.53
54389;BME280;40975;50.390;8.640;2024-03-23T11:08:37;98494.38;;;11.67;74.16
54389;BME280;40975;50.390;8.640;2024-03-23T11:11:13;98490.22;;;12.60;68.95
54389;BME280;40975;50.390;8.640;2024-03-23T11:13:39;98484.13;;;13.45;66.47
54389;BME280;40975;50.390;8.640;2024-03-23T11:16:23;98484.94;;;13.83;64.38
54389;BME280;40975;50.390;8.640;2024-03-23T11:18:50;98487.28;;;13.25;62.29
54389;BME280;40975;50.390;8.640;2024-03-23T11:21:53;98473.25;;;12.30;64.44
54389;BME280;40975;50.390;8.640;2024-03-23T11:24:20;98470.25;;;11.85;63.28
54389;BME280;40975;50.390;8.640;2024-03-23T11:26:46;98474.81;;;11.27;65.21
54389;BME280;40975;50.390;8.640;2024-03-23T11:29:13;98470.16;;;10.87;67.70
54389;BME280;40975;50.390;8.640;2024-03-23T11:31:48;98458.69;;;10.19;68.49
54389;BME280;40975;50.390;8.640;2024-03-23T11:34:15;98463.00;;;10.20;69.52
54389;BME280;40975;50.390;8.640;2024-03-23T11:36:40;98472.66;;;11.06;68.95
54389;BME280;40975;50.390;8.640;2024-03-23T11:39:18;98473.81;;;10.86;69.06
54389;BME280;40975;50.390;8.640;2024-03-23T11:41:49;98478.47;;;12.15;65.33
54389;BME280;40975;50.390;8.640;2024-03-23T11:44:25;98468.41;;;12.65;64.48
54389;BME280;40975;50.390;8.640;2024-03-23T11:46:51;98471.28;;;12.24;62.32
54389;BME280;40975;50.390;8.640;2024-03-23T11:49:23;98460.25;;;11.87;61.84
54389;BME280;40975;50.390;8.640;2024-03-23T11:51:50;98444.38;;;11.62;66.26
54389;BME280;40975;50.390;8.640;2024-03-23T11:54:16;98440.25;;;11.43;68.38
54389;BME280;40975;50.390;8.640;2024-03-23T11:57:14;98445.09;;;10.90;69.50
54389;BME280;40975;50.390;8.640;2024-03-23T11:59:41;98440.41;;;10.51;72.13
54389;BME280;40975;50.390;8.640;2024-03-23T12:02:07;98444.47;;;10.29;71.93
54389;BME280;40975;50.390;8.640;2024-03-23T12:04:32;98449.88;;;10.10;71.40
54389;BME280;40975;50.390;8.640;2024-03-23T12:07:15;98438.47;;;10.86;71.31
54389;BME280;40975;50.390;8.640;2024-03-23T12:09:42;98429.13;;;11.40;71.68
54389;BME280;40975;50.390;8.640;2024-03-23T12:12:14;98420.91;;;11.82;70.95
54389;BME280;40975;50.390;8.640;2024-03-23T12:14:44;98424.00;;;11.13;70.17
54389;BME280;40975;50.390;8.640;2024-03-23T12:17:10;98423.66;;;10.42;70.61
54389;BME280;40975;50.390;8.640;2024-03-23T12:19:36;98426.44;;;9.89;71.32
54389;BME280;40975;50.390;8.640;2024-03-23T12:22:05;98433.66;;;9.44;74.44
54389;BME280;40975;50.390;8.640;2024-03-23T12:24:32;98445.38;;;9.15;77.52
54389;BME280;40975;50.390;8.640;2024-03-23T12:27:03;98432.72;;;9.88;80.41
54389;BME280;40975;50.390;8.640;2024-03-23T12:29:30;98430.13;;;11.47;80.27
54389;BME280;40975;50.390;8.640;2024-03-23T12:31:59;98433.16;;;12.00;77.57
54389;BME280;40975;50.390;8.640;2024-03-23T12:34:25;98435.59;;;11.62;76.58
54389;BME280;40975;50.390;8.640;2024-03-23T12:36:50;98447.06;;;10.55;78.00
54389;BME280;40975;50.390;8.640;2024-03-23T12:39:16;98460.66;;;9.48;79.16
54389;BME280;40975;50.390;8.640;2024-03-23T12:41:41;98472.16;;;8.58;79.88
54389;BME280;40975;50.390;8.640;2024-03-23T12:44:06;98471.63;;;7.51;83.83
54389;BME280;40975;50.390;8.640;2024-03-23T12:46:33;98474.06;;;6.85;87.26
54389;BME280;40975;50.390;8.640;2024-03-23T12:48:59;98475.97;;;6.44;92.08
54389;BME280;40975;50.390;8.640;2024-03-23T12:51:24;98476.47;;;6.18;94.28
54389;BME280;40975;50.390;8.640;2024-03-23T12:53:50;98476.03;;;6.03;92.18
54389;BME280;40975;50.390;8.640;2024-03-23T12:56:16;98466.00;;;5.97;93.87
54389;BME280;40975;50.390;8.640;2024-03-23T12:58:41;98465.16;;;5.97;93.91
54389;BME280;40975;50.390;8.640;2024-03-23T13:01:07;98462.41;;;5.98;93.73
54389;BME280;40975;50.390;8.640;2024-03-23T13:03:32;98472.72;;;6.11;96.13
54389;BME280;40975;50.390;8.640;2024-03-23T13:05:57;98473.13;;;6.06;97.85
54389;BME280;40975;50.390;8.640;2024-03-23T13:08:23;98478.53;;;5.84;97.70
54389;BME280;40975;50.390;8.640;2024-03-23T13:10:51;98474.59;;;5.68;98.70
54389;BME280;40975;50.390;8.640;2024-03-23T13:13:17;98477.50;;;5.65;99.89
54389;BME280;40975;50.390;8.640;2024-03-23T13:15:42;98481.72;;;5.56;100.00
54389;BME280;40975;50.390;8.640;2024-03-23T13:18:08;98492.53;;;5.53;100.00
54389;BME280;40975;50.390;8.640;2024-03-23T13:20:35;98500.75;;;5.39;100.00
54389;BME280;40975;50.390;8.640;2024-03-23T13:23:01;98517.44;;;5.28;100.00
54389;BME280;40975;50.390;8.640;2024-03-23T13:25:26;98521.16;;;5.25;100.00
54389;BME280;40975;50.390;8.640;2024-03-23T13:27:52;98521.97;;;5.05;100.00
54389;BME280;40975;50.390;8.640;2024-03-23T13:30:17;98510.28;;;4.97;100.00
54389;BME280;40975;50.390;8.640;2024-03-23T13:32:42;98516.06;;;4.91;100.00
54389;BME280;40975;50.390;8.640;2024-03-23T13:35:08;98501.53;;;4.64;100.00
54389;BME280;40975;50.390;8.640;2024-03-23T13:37:33;98496.53;;;4.73;100.00
54389;BME280;40975;50.390;8.640;2024-03-23T13:39:59;98464.88;;;4.63;100.00
54389;BME280;40975;50.390;8.640;2024-03-23T13:42:24;98451.94;;;4.71;100.00
54389;BME280;40975;50.390;8.640;2024-03-23T13:44:51;98443.69;;;5.39;100.00
54389;BME280;40975;50.390;8.640;2024-03-23T13:47:16;98439.38;;;6.41;100.00
54389;BME280;40975;50.390;8.640;2024-03-23T13:49:41;98434.66;;;6.74;100.00
54389;BME280;40975;50.390;8.640;2024-03-23T13:52:07;98440.63;;;6.96;100.00
54389;BME280;40975;50.390;8.640;2024-03-23T13:54:33;98432.69;;;7.06;100.00
54389;BME280;40975;50.390;8.640;2024-03-23T13:56:58;98424.91;;;7.14;100.00
54389;BME280;40975;50.390;8.640;2024-03-23T13:59:24;98419.41;;;7.45;100.00